Time;durP1;ratioP1;P1;durP2;ratioP2;P2;SDS_P1;SDS_P2;PMS_P1;PMS_P2;Temp;Humidity;BMP_temperature;BMP_pressure;BME280_temperature;BME280_humidity;BME280_pressure;Samples;Min_cycle;Max_cycle;Signal;HPM_P1;HPM_P2
2022/03/20 00:00:53;;;;;;;36.58;31.27;;;26.80;99.90;;;;;;4162962;28;20058;-69
2022/03/20 00:02:58;;;;;;;36.97;31.98;;;26.80;99.90;;;;;;4163298;28;20719;-71
2022/03/20 00:05:11;;;;;;;37.03;29.85;;;26.80;99.90;;;;;;4162827;28;20783;-71
2022/03/20 00:07:18;;;;;;;38.25;32.95;;;26.90;99.90;;;;;;4142764;28;20046;-70
2022/03/20 00:09:24;;;;;;;35.50;31.60;;;26.90;99.90;;;;;;4159920;28;20133;-70
2022/03/20 00:11:30;;;;;;;38.40;31.10;;;26.90;99.90;;;;;;4163265;28;20792;-72
2022/03/20 00:13:36;;;;;;;37.90;31.60;;;26.90;99.90;;;;;;4163274;28;20402;-70
2022/03/20 00:15:41;;;;;;;35.53;31.10;;;26.90;99.90;;;;;;4162692;28;20136;-70
2022/03/20 00:17:46;;;;;;;40.15;33.75;;;26.90;99.90;;;;;;4162417;28;20119;-72
2022/03/20 00:19:53;;;;;;;39.58;33.70;;;26.90;99.90;;;;;;4162474;28;20111;-71
2022/03/20 00:21:58;;;;;;;49.83;44.38;;;27.00;99.90;;;;;;4161349;28;20049;-72
2022/03/20 00:24:05;;;;;;;41.75;36.70;;;27.00;99.90;;;;;;4163438;28;20160;-72
2022/03/20 00:26:12;;;;;;;38.00;33.85;;;27.00;99.90;;;;;;4163653;28;20072;-72
2022/03/20 00:28:18;;;;;;;38.10;33.03;;;27.00;99.90;;;;;;4163092;28;20465;-71
2022/03/20 00:30:26;;;;;;;43.22;32.00;;;27.00;99.90;;;;;;4163816;28;20140;-70
2022/03/20 00:32:32;;;;;;;36.45;31.80;;;27.10;99.90;;;;;;4163676;28;20033;-70
2022/03/20 00:34:37;;;;;;;36.22;31.55;;;27.10;99.90;;;;;;4163685;28;20136;-70
2022/03/20 00:36:44;;;;;;;36.53;31.50;;;27.10;99.90;;;;;;4159629;28;20037;-70
2022/03/20 00:38:51;;;;;;;37.97;30.42;;;27.10;99.90;;;;;;4164009;28;20057;-71
2022/03/20 00:40:56;;;;;;;38.38;31.98;;;27.10;99.90;;;;;;4161604;28;20141;-70
2022/03/20 00:43:01;;;;;;;37.47;31.17;;;27.10;99.90;;;;;;4161928;28;20129;-68
2022/03/20 00:45:06;;;;;;;40.40;33.08;;;27.20;99.90;;;;;;4163809;28;20043;-69
2022/03/20 00:47:17;;;;;;;37.45;30.30;;;27.20;99.90;;;;;;4163175;28;21384;-68
2022/03/20 00:49:30;;;;;;;38.20;31.08;;;27.20;99.90;;;;;;4162826;28;20514;-70
2022/03/20 00:51:39;;;;;;;36.42;30.42;;;27.20;99.90;;;;;;4162511;28;20833;-70
2022/03/20 00:53:47;;;;;;;37.67;31.25;;;27.20;99.90;;;;;;4163588;28;20061;-70
2022/03/20 00:55:51;;;;;;;36.42;30.13;;;27.30;99.90;;;;;;4164304;28;20561;-69
2022/03/20 00:57:58;;;;;;;36.72;30.48;;;27.30;99.90;;;;;;4160208;28;20054;-70
2022/03/20 01:00:09;;;;;;;38.30;31.33;;;27.40;99.90;;;;;;4161029;28;20541;-70
2022/03/20 01:02:17;;;;;;;37.47;30.33;;;27.40;99.90;;;;;;4161554;28;20045;-70
2022/03/20 01:04:22;;;;;;;37.08;29.90;;;27.40;99.90;;;;;;4163569;28;20052;-71
2022/03/20 01:06:27;;;;;;;35.15;30.60;;;27.50;99.90;;;;;;4162372;28;20048;-69
2022/03/20 01:08:34;;;;;;;35.33;30.48;;;27.50;99.90;;;;;;4145918;28;20048;-70
2022/03/20 01:10:42;;;;;;;37.67;31.38;;;27.50;99.90;;;;;;4146096;28;20141;-69
2022/03/20 01:12:49;;;;;;;38.50;31.95;;;27.50;99.90;;;;;;4161863;28;20841;-70
2022/03/20 01:14:57;;;;;;;37.13;30.98;;;27.50;99.90;;;;;;4162710;28;20064;-70
2022/03/20 01:17:05;;;;;;;37.95;30.42;;;27.50;99.90;;;;;;4162399;28;20124;-68
2022/03/20 01:19:13;;;;;;;39.20;32.08;;;27.50;99.90;;;;;;4163573;28;20459;-70
2022/03/20 01:21:18;;;;;;;33.42;29.73;;;27.60;99.90;;;;;;4162914;28;20052;-69
2022/03/20 01:23:24;;;;;;;37.15;31.08;;;27.60;99.90;;;;;;4146022;28;20042;-70
2022/03/20 01:25:30;;;;;;;37.88;30.58;;;27.70;99.90;;;;;;4162036;28;20068;-69
2022/03/20 01:27:39;;;;;;;37.72;30.67;;;27.90;99.90;;;;;;4162940;28;20488;-70
2022/03/20 01:29:47;;;;;;;32.38;28.20;;;28.00;99.90;;;;;;4163918;28;20052;-70
2022/03/20 01:31:52;;;;;;;34.28;29.60;;;28.10;99.90;;;;;;4162066;28;20037;-69
2022/03/20 01:33:59;;;;;;;32.45;28.98;;;28.20;99.90;;;;;;4163633;28;20052;-69
2022/03/20 01:36:07;;;;;;;40.45;27.98;;;28.30;99.90;;;;;;4129178;28;20417;-68
2022/03/20 01:38:18;;;;;;;40.03;28.77;;;28.30;99.90;;;;;;4162930;28;20544;-68
2022/03/20 01:40:26;;;;;;;33.65;26.65;;;28.30;99.90;;;;;;4163147;28;20470;-68
2022/03/20 01:42:32;;;;;;;37.92;26.55;;;28.20;99.90;;;;;;4160305;28;20117;-70
2022/03/20 01:44:40;;;;;;;31.77;27.85;;;28.20;99.90;;;;;;4162442;28;20570;-69
2022/03/20 01:46:51;;;;;;;32.38;26.80;;;28.20;99.90;;;;;;4162894;28;20195;-70
2022/03/20 01:48:59;;;;;;;33.03;28.88;;;28.20;99.90;;;;;;4162413;28;20141;-69
2022/03/20 01:51:03;;;;;;;33.03;29.23;;;28.30;99.90;;;;;;4162954;28;20064;-68
2022/03/20 01:53:13;;;;;;;33.80;28.55;;;28.40;99.90;;;;;;4161341;28;20052;-68
2022/03/20 01:55:22;;;;;;;38.33;30.48;;;28.40;99.90;;;;;;4161211;28;20053;-68
2022/03/20 01:57:28;;;;;;;34.30;26.60;;;28.30;99.90;;;;;;4162435;28;20403;-68
2022/03/20 01:59:41;;;;;;;35.35;27.40;;;28.40;99.90;;;;;;4161781;28;20053;-68
2022/03/20 02:01:47;;;;;;;33.97;28.33;;;28.40;99.90;;;;;;4160749;28;20045;-68
2022/03/20 02:03:53;;;;;;;36.03;27.98;;;28.40;99.90;;;;;;4161760;28;20045;-69
2022/03/20 02:06:00;;;;;;;39.38;28.45;;;28.30;99.90;;;;;;4163506;28;20056;-68
2022/03/20 02:08:12;;;;;;;32.53;27.95;;;28.40;99.90;;;;;;4160390;28;20037;-69
2022/03/20 02:10:19;;;;;;;31.23;26.90;;;28.40;99.90;;;;;;4161548;28;20115;-67
2022/03/20 02:12:25;;;;;;;37.28;29.83;;;28.40;99.90;;;;;;4161477;28;20420;-69
2022/03/20 02:14:32;;;;;;;39.03;30.00;;;28.30;99.90;;;;;;4161495;28;20045;-69
2022/03/20 02:16:41;;;;;;;33.58;27.42;;;28.30;99.90;;;;;;4162327;28;20646;-68
2022/03/20 02:18:50;;;;;;;29.27;24.15;;;28.20;99.90;;;;;;4162151;28;20104;-70
2022/03/20 02:20:57;;;;;;;23.40;19.35;;;28.20;99.90;;;;;;4161443;28;20033;-69
2022/03/20 02:23:04;;;;;;;21.20;17.88;;;28.10;99.90;;;;;;4183362;28;20051;-70
2022/03/20 02:25:11;;;;;;;17.13;12.88;;;28.10;99.90;;;;;;4162512;28;20047;-69
2022/03/20 02:27:25;;;;;;;16.88;13.73;;;28.10;99.90;;;;;;4162702;28;20042;-67
2022/03/20 02:29:32;;;;;;;14.45;12.70;;;28.10;99.90;;;;;;4160662;28;20065;-68
2022/03/20 02:31:38;;;;;;;15.88;13.15;;;28.10;99.90;;;;;;4160748;28;20060;-68
2022/03/20 02:33:45;;;;;;;14.60;12.95;;;28.10;99.90;;;;;;4134560;28;20138;-67
2022/03/20 02:35:52;;;;;;;15.60;13.30;;;28.10;99.90;;;;;;4162347;28;20071;-67
2022/03/20 02:37:58;;;;;;;17.67;14.82;;;28.10;99.90;;;;;;4162293;28;20053;-70
2022/03/20 02:40:06;;;;;;;16.38;14.65;;;28.10;99.90;;;;;;4183608;28;20047;-68
2022/03/20 02:42:19;;;;;;;19.63;15.63;;;28.00;99.90;;;;;;4162242;28;20045;-69
2022/03/20 02:44:47;;;;;;;19.27;16.48;;;28.00;99.90;;;;;;4162017;28;20061;-68
2022/03/20 02:46:52;;;;;;;22.85;18.13;;;28.00;99.90;;;;;;4162192;28;20045;-67
2022/03/20 02:49:00;;;;;;;24.10;17.00;;;28.00;99.90;;;;;;4161073;28;20057;-70
2022/03/20 02:51:09;;;;;;;24.02;14.95;;;27.90;99.90;;;;;;4162136;28;20104;-68
2022/03/20 02:53:14;;;;;;;18.92;15.20;;;27.90;99.90;;;;;;4160881;28;20080;-68
2022/03/20 02:55:25;;;;;;;18.42;13.07;;;27.90;99.90;;;;;;4162321;28;20045;-69
2022/03/20 02:57:31;;;;;;;14.38;11.98;;;27.80;99.90;;;;;;4162293;28;20088;-69
2022/03/20 02:59:36;;;;;;;19.67;12.70;;;27.80;99.90;;;;;;4160665;28;20084;-71
2022/03/20 03:01:44;;;;;;;12.73;10.57;;;27.80;99.90;;;;;;4162116;28;20099;-70
2022/03/20 03:03:53;;;;;;;11.45;9.60;;;27.90;99.90;;;;;;4159885;28;20063;-70
2022/03/20 03:06:06;;;;;;;14.18;10.38;;;27.90;99.90;;;;;;4162232;28;20173;-70
2022/03/20 03:12:52;;;;;;;16.42;10.32;;;28.10;99.90;;;;;;4160113;28;20659;-69
2022/03/20 03:17:27;;;;;;;12.65;10.43;;;28.20;99.90;;;;;;4183612;28;20051;-69
2022/03/20 03:19:33;;;;;;;11.32;9.68;;;28.40;99.90;;;;;;4160682;28;20838;-71
2022/03/20 03:21:42;;;;;;;12.25;10.02;;;28.50;99.90;;;;;;4162457;28;20042;-69
2022/03/20 03:23:48;;;;;;;14.40;10.77;;;28.60;99.90;;;;;;4162392;28;20104;-70
2022/03/20 03:25:56;;;;;;;11.23;9.77;;;28.60;99.90;;;;;;4189722;28;20028;-71
2022/03/20 03:28:04;;;;;;;11.55;10.05;;;28.70;99.90;;;;;;4161757;28;20052;-70
2022/03/20 03:30:12;;;;;;;13.68;10.27;;;28.80;99.90;;;;;;4143027;28;20133;-70
2022/03/20 03:32:20;;;;;;;13.63;9.80;;;29.00;99.90;;;;;;4160440;28;20068;-69
2022/03/20 03:36:52;;;;;;;12.02;10.55;;;28.90;99.90;;;;;;4161632;28;20053;-68
2022/03/20 03:38:58;;;;;;;11.98;10.65;;;29.00;99.90;;;;;;4185379;28;20069;-70
2022/03/20 03:41:05;;;;;;;13.98;11.45;;;29.10;99.90;;;;;;4160648;28;20033;-69
2022/03/20 03:43:11;;;;;;;12.70;11.30;;;29.20;99.90;;;;;;4160642;28;20053;-69
2022/03/20 03:45:18;;;;;;;12.63;11.32;;;29.20;99.90;;;;;;4116699;28;20089;-68
2022/03/20 03:47:24;;;;;;;14.35;12.18;;;29.30;99.90;;;;;;4158529;28;20055;-68
2022/03/20 03:49:34;;;;;;;14.25;11.68;;;29.50;99.90;;;;;;4160751;28;20051;-67
2022/03/20 03:51:54;;;;;;;15.85;12.60;;;29.50;99.90;;;;;;4111838;28;20050;-69
2022/03/20 03:53:59;;;;;;;15.02;12.10;;;29.20;99.90;;;;;;4114121;28;20557;-69
2022/03/20 03:56:04;;;;;;;19.30;13.30;;;29.10;99.90;;;;;;4121324;28;20532;-69
2022/03/20 03:58:12;;;;;;;13.93;12.40;;;29.20;99.90;;;;;;4102383;28;20062;-67
2022/03/20 04:00:24;;;;;;;18.63;13.35;;;29.40;99.90;;;;;;4117740;28;20050;-68
2022/03/20 04:02:29;;;;;;;15.10;12.52;;;29.30;99.90;;;;;;4116017;28;20800;-68
2022/03/20 04:04:36;;;;;;;14.95;12.20;;;29.30;99.90;;;;;;4101629;28;20039;-69
2022/03/20 04:06:43;;;;;;;14.35;12.80;;;29.40;99.90;;;;;;4114839;28;20039;-68
2022/03/20 04:08:49;;;;;;;14.90;13.27;;;29.40;99.90;;;;;;4118068;28;20047;-69
2022/03/20 04:10:55;;;;;;;17.45;13.95;;;29.50;99.90;;;;;;4117278;28;20042;-69
2022/03/20 04:13:02;;;;;;;17.55;15.00;;;29.30;99.90;;;;;;4116611;28;20146;-68
2022/03/20 04:15:08;;;;;;;17.55;14.45;;;29.30;99.90;;;;;;4118115;28;20082;-69
2022/03/20 04:17:14;;;;;;;17.48;15.43;;;29.40;99.90;;;;;;4117093;28;20442;-68
2022/03/20 04:19:21;;;;;;;19.60;15.25;;;29.20;99.90;;;;;;4118496;28;20049;-68
2022/03/20 04:21:27;;;;;;;17.02;14.18;;;29.10;99.90;;;;;;4102892;28;20042;-68
2022/03/20 04:23:48;;;;;;;18.40;14.57;;;29.00;99.90;;;;;;4116744;28;20113;-68
2022/03/20 04:25:53;;;;;;;18.17;14.55;;;29.30;99.90;;;;;;4121096;28;20054;-69
2022/03/20 04:28:05;;;;;;;19.38;14.68;;;29.50;99.90;;;;;;4117908;28;20074;-68
2022/03/20 04:30:11;;;;;;;16.52;14.60;;;29.70;99.90;;;;;;4120001;28;20057;-71
2022/03/20 04:32:16;;;;;;;20.33;14.90;;;29.70;99.90;;;;;;4117536;28;20054;-68
2022/03/20 04:34:23;;;;;;;16.23;13.48;;;29.70;99.90;;;;;;4117897;28;20070;-67
2022/03/20 04:36:35;;;;;;;15.40;13.70;;;29.80;99.90;;;;;;4114799;28;20038;-67
2022/03/20 04:38:55;;;;;;;16.70;13.40;;;29.90;99.90;;;;;;4116410;28;20117;-67
2022/03/20 04:40:59;;;;;;;18.02;14.70;;;30.10;99.90;;;;;;4118085;28;20109;-67
2022/03/20 04:43:06;;;;;;;16.35;14.20;;;30.20;99.90;;;;;;4111546;28;20047;-68
2022/03/20 04:45:14;;;;;;;17.27;13.98;;;30.30;99.90;;;;;;4113705;28;20063;-67
2022/03/20 04:58:53;;;;;;;16.55;13.45;;;30.90;99.20;;;;;;4161711;28;20071;-67
2022/03/20 05:00:58;;;;;;;14.82;12.73;;;31.00;99.50;;;;;;4164627;28;20492;-68
2022/03/20 05:03:05;;;;;;;15.57;12.70;;;31.10;99.50;;;;;;4164518;28;20133;-67
2022/03/20 05:05:12;;;;;;;15.68;12.77;;;31.10;99.70;;;;;;4164323;28;20057;-68
2022/03/20 05:07:17;;;;;;;14.00;12.50;;;31.20;99.60;;;;;;4164598;28;20069;-67
2022/03/20 05:14:02;;;;;;;17.42;13.75;;;31.30;98.60;;;;;;4162069;28;20099;-68
2022/03/20 05:16:11;;;;;;;18.00;13.07;;;31.30;98.70;;;;;;4162426;28;20053;-68
2022/03/20 05:18:19;;;;;;;14.20;12.70;;;31.50;98.40;;;;;;4163292;28;20048;-69
2022/03/20 05:20:25;;;;;;;13.13;11.80;;;31.60;98.50;;;;;;4163544;28;20806;-69
2022/03/20 05:22:32;;;;;;;13.90;11.77;;;31.60;98.40;;;;;;4161983;28;20391;-69
2022/03/20 05:24:37;;;;;;;12.63;11.43;;;31.70;98.20;;;;;;4187212;28;20613;-68
2022/03/20 05:26:44;;;;;;;14.15;12.73;;;31.80;98.40;;;;;;4161837;28;20044;-68
2022/03/20 05:28:50;;;;;;;17.60;12.65;;;31.80;97.90;;;;;;4161413;28;20477;-68
2022/03/20 05:30:58;;;;;;;13.70;12.13;;;31.70;98.10;;;;;;4163590;28;20626;-69
2022/03/20 05:33:03;;;;;;;12.52;11.13;;;31.70;97.80;;;;;;4163290;28;20045;-70
2022/03/20 05:35:11;;;;;;;13.02;11.48;;;31.80;97.40;;;;;;4128602;28;20046;-71
2022/03/20 05:37:18;;;;;;;13.65;12.10;;;32.00;96.90;;;;;;4164102;28;20044;-70
2022/03/20 05:39:23;;;;;;;13.80;11.80;;;32.00;96.80;;;;;;4163492;28;20037;-70
2022/03/20 05:43:52;;;;;;;12.80;10.93;;;32.20;96.20;;;;;;4159696;28;20417;-68
2022/03/20 05:45:58;;;;;;;12.85;11.23;;;32.30;96.10;;;;;;4161465;28;20049;-70
2022/03/20 05:48:05;;;;;;;12.68;11.32;;;32.30;95.60;;;;;;4150633;28;20538;-70
2022/03/20 05:50:10;;;;;;;12.75;11.45;;;32.30;95.60;;;;;;4162478;28;20049;-69
2022/03/20 05:52:15;;;;;;;12.98;11.63;;;32.30;95.20;;;;;;4162497;28;20056;-70
2022/03/20 05:54:20;;;;;;;13.80;11.15;;;32.30;95.50;;;;;;4162113;28;20053;-70
2022/03/20 05:58:43;;;;;;;12.55;11.25;;;32.50;95.50;;;;;;4162042;28;20072;-71
2022/03/20 06:00:51;;;;;;;11.80;10.57;;;32.50;95.40;;;;;;4161975;28;20123;-69
2022/03/20 06:02:58;;;;;;;12.52;11.23;;;32.50;95.50;;;;;;4160638;28;20046;-71
2022/03/20 06:05:04;;;;;;;12.18;10.90;;;32.50;95.20;;;;;;4163111;28;20120;-70
2022/03/20 06:07:15;;;;;;;12.48;11.18;;;32.60;94.60;;;;;;4161766;28;20749;-69
2022/03/20 06:09:22;;;;;;;12.98;10.98;;;32.60;94.20;;;;;;4162366;28;20067;-70
2022/03/20 06:11:28;;;;;;;13.75;11.98;;;32.60;94.00;;;;;;4161819;28;20060;-70
2022/03/20 06:13:35;;;;;;;12.60;11.23;;;32.60;93.80;;;;;;4161429;28;20463;-71
2022/03/20 06:15:46;;;;;;;13.07;10.85;;;32.60;94.30;;;;;;4162601;28;20531;-71
2022/03/20 06:17:53;;;;;;;12.20;11.00;;;32.60;94.40;;;;;;4162325;28;20371;-70
2022/03/20 06:20:00;;;;;;;13.50;11.18;;;32.60;94.60;;;;;;4121187;28;20509;-70
2022/03/20 06:22:08;;;;;;;11.98;10.88;;;32.70;94.70;;;;;;4161317;28;20061;-70
2022/03/20 06:24:13;;;;;;;13.60;11.20;;;32.70;94.50;;;;;;4161985;28;20069;-70
2022/03/20 06:26:23;;;;;;;11.63;10.43;;;32.80;94.80;;;;;;4186843;28;20144;-70
2022/03/20 06:28:30;;;;;;;13.00;10.90;;;32.80;94.90;;;;;;4161980;28;20123;-71
2022/03/20 06:30:35;;;;;;;12.35;10.85;;;33.00;94.70;;;;;;4161371;28;20136;-70
2022/03/20 06:32:42;;;;;;;12.48;11.18;;;32.90;94.00;;;;;;4161599;28;20123;-70
2022/03/20 06:34:50;;;;;;;14.40;11.10;;;32.90;93.90;;;;;;4159406;28;20152;-70
2022/03/20 06:36:57;;;;;;;12.45;10.63;;;32.90;94.00;;;;;;4162157;28;20720;-71
2022/03/20 06:39:04;;;;;;;12.50;11.02;;;32.90;94.10;;;;;;4160072;28;20451;-70
2022/03/20 06:41:13;;;;;;;11.90;10.65;;;32.90;94.00;;;;;;4160969;28;20058;-70
2022/03/20 06:43:18;;;;;;;12.30;10.70;;;33.00;94.10;;;;;;4161658;28;20045;-69
2022/03/20 06:45:27;;;;;;;12.23;10.73;;;33.00;93.40;;;;;;4159756;28;20104;-69
2022/03/20 06:47:33;;;;;;;12.40;10.63;;;33.00;93.90;;;;;;4162253;28;20811;-68
2022/03/20 06:49:40;;;;;;;11.70;10.60;;;33.10;94.30;;;;;;4161440;28;20526;-69
2022/03/20 06:51:45;;;;;;;13.40;12.05;;;33.10;94.20;;;;;;4144857;28;20556;-69
2022/03/20 06:53:50;;;;;;;11.93;10.82;;;33.10;94.10;;;;;;4161619;28;20103;-69
2022/03/20 06:55:55;;;;;;;12.93;11.15;;;33.10;94.10;;;;;;4156727;28;20399;-70
2022/03/20 06:58:00;;;;;;;13.35;11.88;;;33.20;94.30;;;;;;4161305;28;20073;-69
2022/03/20 07:00:06;;;;;;;12.45;11.20;;;33.20;94.50;;;;;;4154584;28;20053;-68
2022/03/20 07:02:23;;;;;;;15.13;12.13;;;33.30;94.20;;;;;;4159349;28;20041;-69
2022/03/20 07:04:29;;;;;;;12.48;11.18;;;33.30;94.40;;;;;;4159827;28;20095;-70
2022/03/20 07:06:36;;;;;;;13.15;11.25;;;33.30;94.40;;;;;;4161869;28;20049;-69
2022/03/20 07:08:41;;;;;;;12.25;10.95;;;33.30;94.30;;;;;;4161949;28;20045;-70
2022/03/20 07:10:49;;;;;;;12.57;11.38;;;33.40;94.40;;;;;;4125454;28;20066;-70
2022/03/20 07:15:11;;;;;;;12.75;11.43;;;33.40;93.90;;;;;;4162993;28;20136;-74
2022/03/20 07:17:22;;;;;;;12.85;11.55;;;33.30;93.80;;;;;;4161634;28;20045;-72
2022/03/20 07:19:31;;;;;;;12.90;11.35;;;33.40;93.90;;;;;;4160516;28;20041;-72
2022/03/20 07:21:38;;;;;;;14.40;11.93;;;33.40;93.80;;;;;;4161924;28;20096;-71
2022/03/20 07:23:42;;;;;;;13.75;11.23;;;33.40;93.80;;;;;;4161590;28;20053;-71
2022/03/20 07:30:24;;;;;;;13.27;11.43;;;33.50;93.60;;;;;;4160998;28;20059;-71
2022/03/20 07:32:33;;;;;;;12.73;10.85;;;33.50;93.50;;;;;;4159756;28;20120;-68
2022/03/20 07:34:39;;;;;;;20.00;12.05;;;33.60;93.70;;;;;;4160517;28;20136;-69
2022/03/20 07:36:46;;;;;;;13.60;11.85;;;33.60;93.30;;;;;;4116574;28;20050;-69
2022/03/20 07:38:51;;;;;;;12.93;11.30;;;33.50;92.60;;;;;;4161632;28;20125;-69
2022/03/20 07:40:58;;;;;;;14.52;11.52;;;33.40;92.80;;;;;;4161088;28;20053;-72
2022/03/20 07:43:07;;;;;;;12.50;11.23;;;33.40;93.20;;;;;;4160040;28;20033;-70
2022/03/20 07:45:18;;;;;;;13.15;11.57;;;33.40;93.20;;;;;;4160147;28;20095;-68
2022/03/20 07:47:24;;;;;;;12.65;11.35;;;33.40;93.40;;;;;;4161102;28;20554;-70
2022/03/20 07:49:33;;;;;;;13.80;11.77;;;33.40;92.70;;;;;;4161495;28;20041;-70
2022/03/20 07:51:38;;;;;;;12.20;10.88;;;33.40;92.40;;;;;;4161364;28;20045;-67
2022/03/20 07:53:45;;;;;;;11.60;10.40;;;33.40;92.70;;;;;;4162239;28;20077;-68
2022/03/20 07:55:54;;;;;;;13.88;11.55;;;33.40;92.40;;;;;;4159929;28;20526;-70
2022/03/20 07:57:59;;;;;;;14.27;11.23;;;33.40;92.30;;;;;;4161218;28;20046;-71
2022/03/20 08:00:05;;;;;;;13.55;11.00;;;33.40;92.80;;;;;;4160320;28;20041;-71
2022/03/20 08:02:18;;;;;;;11.77;10.57;;;33.30;92.80;;;;;;4160878;28;20044;-70
2022/03/20 08:04:24;;;;;;;13.80;10.35;;;33.30;92.70;;;;;;4161900;28;20041;-70
2022/03/20 08:06:30;;;;;;;11.90;10.50;;;33.30;92.30;;;;;;4160909;28;20140;-70
2022/03/20 08:08:36;;;;;;;11.85;10.48;;;33.40;92.00;;;;;;4159819;28;20063;-71
2022/03/20 08:10:43;;;;;;;11.80;10.20;;;33.40;91.80;;;;;;4161190;28;20057;-69
2022/03/20 08:12:49;;;;;;;11.55;10.32;;;33.40;91.90;;;;;;4158718;28;20053;-69
2022/03/20 08:14:56;;;;;;;11.55;9.95;;;33.40;92.00;;;;;;4162352;28;20483;-71
2022/03/20 08:17:01;;;;;;;13.18;10.57;;;33.40;92.00;;;;;;4162265;28;20124;-71
2022/03/20 08:19:09;;;;;;;11.73;9.77;;;33.40;92.10;;;;;;4162340;28;20503;-73
2022/03/20 08:21:16;;;;;;;10.35;9.20;;;33.50;92.20;;;;;;4165066;28;20041;-74
2022/03/20 08:23:21;;;;;;;9.43;8.50;;;33.50;91.80;;;;;;4164694;28;20041;-72
2022/03/20 08:25:28;;;;;;;9.35;8.40;;;33.60;90.70;;;;;;4164952;28;20140;-72
2022/03/20 08:27:49;;;;;;;10.88;9.55;;;33.60;90.70;;;;;;4165121;28;20072;-71
2022/03/20 08:29:58;;;;;;;11.25;9.80;;;33.60;90.70;;;;;;4162062;28;20427;-69
2022/03/20 08:32:06;;;;;;;13.82;9.40;;;33.50;91.10;;;;;;4163973;28;20112;-69
2022/03/20 08:34:14;;;;;;;10.52;9.48;;;33.50;90.90;;;;;;4163845;28;20132;-70
2022/03/20 08:36:20;;;;;;;10.07;8.65;;;33.50;90.90;;;;;;4164340;28;20037;-68
2022/03/20 08:38:24;;;;;;;11.90;9.35;;;33.50;90.70;;;;;;4164146;28;20041;-69
2022/03/20 08:40:33;;;;;;;10.35;9.18;;;33.60;90.90;;;;;;4163542;28;20056;-69
2022/03/20 08:42:38;;;;;;;10.50;9.40;;;33.60;91.10;;;;;;4163428;28;20034;-70
2022/03/20 08:44:44;;;;;;;10.30;9.20;;;33.60;91.00;;;;;;4163660;28;20451;-71
2022/03/20 08:46:52;;;;;;;10.10;8.98;;;33.70;89.80;;;;;;4128782;28;20054;-71
2022/03/20 08:49:03;;;;;;;10.45;9.13;;;33.70;90.50;;;;;;4162725;28;20041;-71
2022/03/20 08:51:08;;;;;;;9.60;8.70;;;33.60;90.50;;;;;;4163037;28;20583;-71
2022/03/20 08:53:16;;;;;;;10.05;8.93;;;33.60;90.40;;;;;;4161720;28;20049;-69
2022/03/20 08:55:22;;;;;;;10.43;9.40;;;33.60;90.40;;;;;;4163802;28;20049;-68
2022/03/20 08:57:28;;;;;;;11.30;9.30;;;33.60;90.40;;;;;;4163735;28;20560;-70
2022/03/20 08:59:34;;;;;;;10.15;9.05;;;33.60;90.60;;;;;;4157965;28;20174;-71
2022/03/20 09:01:39;;;;;;;10.88;9.80;;;33.60;91.10;;;;;;4159830;28;20053;-71
2022/03/20 09:03:45;;;;;;;10.35;9.23;;;33.60;91.10;;;;;;4160808;28;20053;-71
2022/03/20 09:05:52;;;;;;;10.10;9.00;;;33.60;90.50;;;;;;4160817;28;20496;-72
2022/03/20 09:07:58;;;;;;;10.50;8.07;;;33.60;90.40;;;;;;4163687;28;20049;-70
2022/03/20 09:10:03;;;;;;;10.32;8.57;;;33.60;90.10;;;;;;4163204;28;20057;-70
2022/03/20 09:12:12;;;;;;;9.27;8.38;;;33.60;90.00;;;;;;4161465;28;20507;-74
2022/03/20 09:14:17;;;;;;;10.07;7.57;;;33.50;90.00;;;;;;4162792;28;20401;-69
2022/03/20 09:20:58;;;;;;;10.80;8.45;;;33.60;90.40;;;;;;4162534;28;20045;-71
2022/03/20 09:23:04;;;;;;;9.57;8.48;;;33.60;90.10;;;;;;4161228;28;20041;-69
2022/03/20 09:25:13;;;;;;;8.98;8.07;;;33.60;89.90;;;;;;4163726;28;20053;-70
2022/03/20 09:27:18;;;;;;;9.05;8.10;;;33.60;89.20;;;;;;4164422;28;20106;-70
2022/03/20 09:29:23;;;;;;;9.85;8.75;;;33.60;89.80;;;;;;4164216;28;20077;-70
2022/03/20 09:31:34;;;;;;;10.00;8.95;;;33.60;89.20;;;;;;4164553;28;20484;-70
2022/03/20 09:33:46;;;;;;;11.77;9.38;;;33.60;89.60;;;;;;4164074;28;20107;-69
2022/03/20 09:35:50;;;;;;;10.27;8.40;;;33.60;89.80;;;;;;4161620;28;20061;-69
2022/03/20 09:37:59;;;;;;;9.77;8.60;;;33.60;89.60;;;;;;4163831;28;20523;-69
2022/03/20 09:40:09;;;;;;;12.02;8.55;;;33.60;89.00;;;;;;4163527;28;20524;-69
2022/03/20 09:42:14;;;;;;;11.07;8.25;;;33.60;88.90;;;;;;4161468;28;20132;-68
2022/03/20 09:44:25;;;;;;;9.57;8.13;;;33.50;89.30;;;;;;4163502;28;20037;-69
2022/03/20 09:46:30;;;;;;;9.60;8.60;;;33.50;89.50;;;;;;4163680;28;20477;-69
2022/03/20 09:48:35;;;;;;;12.80;8.68;;;33.50;89.60;;;;;;4161077;28;20049;-69
2022/03/20 09:50:44;;;;;;;13.00;9.25;;;33.50;89.40;;;;;;4163428;28;20045;-70
2022/03/20 09:52:48;;;;;;;14.32;8.68;;;33.50;89.60;;;;;;4162232;28;20049;-70
2022/03/20 09:54:53;;;;;;;11.88;8.45;;;33.50;89.40;;;;;;4161815;28;20057;-68
2022/03/20 09:57:04;;;;;;;11.77;8.73;;;33.40;89.40;;;;;;4163602;28;20069;-66
2022/03/20 09:59:11;;;;;;;13.80;9.05;;;33.40;89.80;;;;;;4163622;28;20760;-67
2022/03/20 10:01:16;;;;;;;22.38;16.85;;;33.40;90.10;;;;;;4163669;28;20782;-69
2022/03/20 10:03:25;;;;;;;24.73;19.15;;;33.40;90.30;;;;;;4129766;28;20046;-68
2022/03/20 10:05:30;;;;;;;18.35;15.10;;;33.40;90.30;;;;;;4163965;28;20481;-70
2022/03/20 10:07:42;;;;;;;15.30;12.73;;;33.40;90.40;;;;;;4161947;28;20503;-67
2022/03/20 10:10:09;;;;;;;11.10;9.97;;;33.30;90.20;;;;;;4163222;28;20049;-69
2022/03/20 10:12:15;;;;;;;11.10;9.20;;;33.30;90.40;;;;;;4164014;28;20060;-70
2022/03/20 10:14:26;;;;;;;11.73;8.90;;;33.30;90.50;;;;;;4162029;28;20088;-67
2022/03/20 10:16:35;;;;;;;11.98;9.52;;;33.30;90.40;;;;;;4161337;28;20412;-68
2022/03/20 10:18:41;;;;;;;13.85;8.90;;;33.30;90.50;;;;;;4162142;28;20091;-71
2022/03/20 10:20:47;;;;;;;12.25;8.98;;;33.30;90.50;;;;;;4162342;28;20087;-69
2022/03/20 10:22:54;;;;;;;14.40;9.05;;;33.30;90.50;;;;;;4159685;28;20606;-70
2022/03/20 10:24:59;;;;;;;11.13;8.90;;;33.20;90.50;;;;;;4162495;28;20128;-68
2022/03/20 10:27:08;;;;;;;9.75;8.63;;;33.20;90.50;;;;;;4162762;28;20543;-69
2022/03/20 10:29:18;;;;;;;12.02;8.93;;;33.20;90.40;;;;;;4162040;28;20044;-68
2022/03/20 10:31:23;;;;;;;11.65;8.80;;;33.20;90.60;;;;;;4162646;28;20050;-69
2022/03/20 10:33:27;;;;;;;10.75;8.77;;;33.10;90.70;;;;;;4162410;28;20041;-68
2022/03/20 10:35:39;;;;;;;10.27;8.77;;;33.10;90.80;;;;;;4121590;28;20504;-68
2022/03/20 10:37:57;;;;;;;11.40;8.55;;;33.10;91.00;;;;;;4166153;28;20135;-69
2022/03/20 10:40:20;;;;;;;10.40;8.93;;;33.00;90.90;;;;;;4161937;28;20462;-69
2022/03/20 10:42:30;;;;;;;9.77;8.77;;;33.00;91.10;;;;;;4159871;28;20071;-69
2022/03/20 10:44:34;;;;;;;9.63;8.70;;;33.00;91.20;;;;;;4162903;28;20637;-70
2022/03/20 10:46:40;;;;;;;10.38;9.10;;;33.00;91.30;;;;;;4162902;28;20073;-70
2022/03/20 10:48:52;;;;;;;10.32;9.23;;;32.90;91.30;;;;;;4162692;28;20029;-69
2022/03/20 10:50:57;;;;;;;10.15;9.05;;;32.90;91.50;;;;;;4163339;28;20057;-69
2022/03/20 10:53:09;;;;;;;11.23;9.15;;;32.90;91.60;;;;;;4162937;28;20041;-69
2022/03/20 10:55:19;;;;;;;24.63;11.30;;;32.80;91.60;;;;;;4161507;28;20045;-70
2022/03/20 10:57:34;;;;;;;27.02;12.25;;;32.80;91.80;;;;;;4161597;28;20045;-69
2022/03/20 10:59:40;;;;;;;28.50;11.93;;;32.70;91.90;;;;;;4161954;28;20055;-69
2022/03/20 11:01:48;;;;;;;21.17;11.60;;;32.70;92.00;;;;;;4162772;28;20128;-70
2022/03/20 11:03:53;;;;;;;23.27;11.27;;;32.60;92.20;;;;;;4162500;28;20080;-68
2022/03/20 11:05:58;;;;;;;21.80;12.82;;;32.60;92.30;;;;;;4163090;28;20049;-69
2022/03/20 11:08:06;;;;;;;42.92;18.17;;;32.50;92.40;;;;;;4162806;28;20088;-69
2022/03/20 11:10:12;;;;;;;15.98;12.60;;;32.40;92.40;;;;;;4162449;28;20037;-69
2022/03/20 11:12:25;;;;;;;26.55;14.40;;;32.40;92.40;;;;;;4155491;28;20550;-69
2022/03/20 11:14:36;;;;;;;74.93;21.87;;;32.40;92.30;;;;;;4183103;28;20048;-69
2022/03/20 11:16:40;;;;;;;48.20;18.23;;;32.30;92.50;;;;;;4158141;28;20047;-68
2022/03/20 11:18:45;;;;;;;60.95;19.73;;;32.40;92.60;;;;;;4161851;28;20049;-68
2022/03/20 11:20:54;;;;;;;86.05;20.73;;;32.30;92.80;;;;;;4111777;28;20165;-69
2022/03/20 11:23:01;;;;;;;24.85;13.70;;;32.30;92.80;;;;;;4162391;28;20037;-69
2022/03/20 11:25:09;;;;;;;28.85;14.77;;;32.20;93.10;;;;;;4162926;28;20033;-70
2022/03/20 11:27:26;;;;;;;30.38;14.95;;;32.20;93.30;;;;;;4163238;28;20628;-68
2022/03/20 11:29:51;;;;;;;21.00;14.13;;;32.10;93.40;;;;;;4161749;28;20044;-68
2022/03/20 11:31:58;;;;;;;25.55;14.25;;;32.10;93.50;;;;;;4161582;28;20049;-70